地図

経路データ

SID SEASON NUMBER BASIN SUBBASIN NAME ISO_TIME NATURE LAT LON WMO_WIND WMO_PRES WMO_AGENCY TRACK_TYPE DIST2LAND LANDFALL IFLAG USA_AGENCY USA_ATCF_ID USA_LAT USA_LON USA_RECORD USA_STATUS USA_WIND USA_PRES USA_SSHS USA_R34_NE USA_R34_SE USA_R34_SW USA_R34_NW USA_R50_NE USA_R50_SE USA_R50_SW USA_R50_NW USA_R64_NE USA_R64_SE USA_R64_SW USA_R64_NW USA_POCI USA_ROCI USA_RMW USA_EYE TOKYO_LAT TOKYO_LON TOKYO_GRADE TOKYO_WIND TOKYO_PRES TOKYO_R50_DIR TOKYO_R50_LONG TOKYO_R50_SHORT TOKYO_R30_DIR TOKYO_R30_LONG TOKYO_R30_SHORT TOKYO_LAND CMA_LAT CMA_LON CMA_CAT CMA_WIND CMA_PRES HKO_LAT HKO_LON HKO_CAT HKO_WIND HKO_PRES NEWDELHI_LAT NEWDELHI_LON NEWDELHI_GRADE NEWDELHI_WIND NEWDELHI_PRES NEWDELHI_CI NEWDELHI_DP NEWDELHI_POCI REUNION_LAT REUNION_LON REUNION_TYPE REUNION_WIND REUNION_PRES REUNION_TNUM REUNION_CI REUNION_RMW REUNION_R34_NE REUNION_R34_SE REUNION_R34_SW REUNION_R34_NW REUNION_R50_NE REUNION_R50_SE REUNION_R50_SW REUNION_R50_NW REUNION_R64_NE REUNION_R64_SE REUNION_R64_SW REUNION_R64_NW BOM_LAT BOM_LON BOM_TYPE BOM_WIND BOM_PRES BOM_TNUM BOM_CI BOM_RMW BOM_R34_NE BOM_R34_SE BOM_R34_SW BOM_R34_NW BOM_R50_NE BOM_R50_SE BOM_R50_SW BOM_R50_NW BOM_R64_NE BOM_R64_SE BOM_R64_SW BOM_R64_NW BOM_ROCI BOM_POCI BOM_EYE BOM_POS_METHOD BOM_PRES_METHOD NADI_LAT NADI_LON NADI_CAT NADI_WIND NADI_PRES WELLINGTON_LAT WELLINGTON_LON WELLINGTON_WIND WELLINGTON_PRES DS824_LAT DS824_LON DS824_STAGE DS824_WIND DS824_PRES TD9636_LAT TD9636_LON TD9636_STAGE TD9636_WIND TD9636_PRES TD9635_LAT TD9635_LON TD9635_WIND TD9635_PRES TD9635_ROCI NEUMANN_LAT NEUMANN_LON NEUMANN_CLASS NEUMANN_WIND NEUMANN_PRES MLC_LAT MLC_LON MLC_CLASS MLC_WIND MLC_PRES USA_GUST BOM_GUST BOM_GUST_PER REUNION_GUST REUNION_GUST_PER USA_SEAHGT USA_SEARAD_NE USA_SEARAD_SE USA_SEARAD_SW USA_SEARAD_NW STORM_SPEED STORM_DIR
1988273N09315 1988 88 NA NA ISAAC 1988-09-28 18:00:00 TS 9.00000 -45.5000 25 1009 hurdat_atl main 829 771 O_____________ hurdat_atl AL101988 9.00000 -45.5000 TD 25 1009 -1 14 273
1988273N09315 1988 88 NA NA ISAAC 1988-09-28 21:00:00 TS 9.04011 -46.2201 main 771 717 P_____________ AL101988 9.04011 -46.2201 TD 25 1008 -1 15 274
1988273N09315 1988 88 NA NA ISAAC 1988-09-29 00:00:00 TS 9.10000 -47.0000 25 1008 hurdat_atl main 717 671 O_____________ hurdat_atl AL101988 9.10000 -47.0000 TD 25 1008 -1 16 275
1988273N09315 1988 88 NA NA ISAAC 1988-09-29 03:00:00 TS 9.19260 -47.8650 main 665 629 P_____________ AL101988 9.19260 -47.8650 TD 25 1007 -1 17 277
1988273N09315 1988 88 NA NA ISAAC 1988-09-29 06:00:00 TS 9.30000 -48.7000 25 1007 hurdat_atl main 629 595 O_____________ hurdat_atl AL101988 9.30000 -48.7000 TD 25 1007 -1 15 278
1988273N09315 1988 88 NA NA ISAAC 1988-09-29 09:00:00 TS 9.40720 -49.3800 main 588 560 P_____________ AL101988 9.40720 -49.3800 TD 25 1007 -1 13 279
1988273N09315 1988 88 NA NA ISAAC 1988-09-29 12:00:00 TS 9.50000 -50.0000 25 1007 hurdat_atl main 560 529 O_____________ hurdat_atl AL101988 9.50000 -50.0000 TD 25 1007 -1 13 276
1988273N09315 1988 88 NA NA ISAAC 1988-09-29 15:00:00 TS 9.55003 -50.6801 main 534 509 P_____________ AL101988 9.55003 -50.6801 TD 27 1006 -1 13 274
1988273N09315 1988 88 NA NA ISAAC 1988-09-29 18:00:00 TS 9.60000 -51.3000 30 1006 hurdat_atl main 509 498 O_____________ hurdat_atl AL101988 9.60000 -51.3000 TD 30 1006 -1 11 277
1988273N09315 1988 88 NA NA ISAAC 1988-09-29 21:00:00 TS 9.67731 -51.7801 main 499 489 P_____________ AL101988 9.67731 -51.7801 TD 30 1006 -1 9 283
1988273N09315 1988 88 NA NA ISAAC 1988-09-30 00:00:00 TS 9.80000 -52.2000 30 1006 hurdat_atl main 489 481 O_____________ hurdat_atl AL101988 9.80000 -52.2000 TD 30 1006 -1 9 290
1988273N09315 1988 88 NA NA ISAAC 1988-09-30 03:00:00 TS 9.96976 -52.6127 main 492 484 P_____________ AL101988 9.96976 -52.6127 TD 30 1006 -1 10 294
1988273N09315 1988 88 NA NA ISAAC 1988-09-30 06:00:00 TS 10.2000 -53.1000 30 1006 hurdat_atl main 496 494 O_____________ hurdat_atl AL101988 10.2000 -53.1000 TD 30 1006 -1 12 295
1988273N09315 1988 88 NA NA ISAAC 1988-09-30 09:00:00 TS 10.4850 -53.7550 main 517 516 P_____________ AL101988 10.4850 -53.7550 TD 30 1005 -1 15 294
1988273N09315 1988 88 NA NA ISAAC 1988-09-30 12:00:00 TS 10.8000 -54.5000 30 1005 hurdat_atl main 548 542 O_____________ hurdat_atl AL101988 10.8000 -54.5000 TD 30 1005 -1 16 294
1988273N09315 1988 88 NA NA ISAAC 1988-09-30 15:00:00 TS 11.1147 -55.2276 main 542 503 P_____________ AL101988 11.1147 -55.2276 TD 32 1005 -1 16 292
1988273N09315 1988 88 NA NA ISAAC 1988-09-30 18:00:00 TS 11.4000 -56.0000 35 1005 hurdat_atl main 503 469 O_____________ hurdat_atl AL101988 11.4000 -56.0000 TS 35 1005 0 17 288
1988273N09315 1988 88 NA NA ISAAC 1988-09-30 21:00:00 TS 11.6298 -56.8276 main 469 380 P_____________ AL101988 11.6298 -56.8276 TS 37 1005 0 17 284
1988273N09315 1988 88 NA NA ISAAC 1988-10-01 00:00:00 TS 11.8000 -57.7000 40 1005 hurdat_atl main 380 304 O_____________ hurdat_atl AL101988 11.8000 -57.7000 TS 40 1005 0 18 280
1988273N09315 1988 88 NA NA ISAAC 1988-10-01 03:00:00 TS 11.9299 -58.6000 main 294 219 P_____________ AL101988 11.9299 -58.6000 TS 37 1005 0 18 276
1988273N09315 1988 88 NA NA ISAAC 1988-10-01 06:00:00 TS 12.0000 -59.5000 35 1005 hurdat_atl main 219 164 O_____________ hurdat_atl AL101988 12.0000 -59.5000 TS 35 1005 0 17 273
1988273N09315 1988 88 NA CS ISAAC 1988-10-01 09:00:00 TS 12.0154 -60.3625 main 159 145 P_____________ AL101988 12.0154 -60.3625 TS 32 1005 -1 17 270
1988273N09315 1988 88 NA CS ISAAC 1988-10-01 12:00:00 TS 12.0000 -61.2000 30 1006 hurdat_atl main 145 O_____________ hurdat_atl AL101988 12.0000 -61.2000 TD 30 1006 -1 16 269

IBTrACS Databaseについて

本データベースは、米国NOAAが公開する1842年以降の世界の熱帯低気圧のベストトラックデータアーカイブInternational Best Track Archive for Climate Stewardship (IBTrACS)を、ウェブで閲覧しやすい形式に変換したものです。

最終更新日:2021-10-08